createdAt,value
2022-11-05T00:02:24.578Z,100145.47
2022-11-05T00:05:09.879Z,100141.78
2022-11-05T00:08:08.403Z,100146.41
2022-11-05T00:10:37.488Z,100145.03
2022-11-05T00:13:25.724Z,100117.75
2022-11-05T00:16:11.445Z,100136.97
2022-11-05T00:18:38.193Z,100147.28
2022-11-05T00:21:05.138Z,100131.03
2022-11-05T00:23:50.322Z,100157.69
2022-11-05T00:26:16.896Z,100154.25
2022-11-05T00:28:44.686Z,100124.03
2022-11-05T00:31:13.675Z,100133.28
2022-11-05T00:33:42.055Z,100147.28
2022-11-05T00:36:10.119Z,100167.66
2022-11-05T00:38:36.793Z,100165.09
2022-11-05T00:41:03.475Z,100167.66
2022-11-05T00:43:48.755Z,100159.00
2022-11-05T00:46:15.342Z,100169.97
2022-11-05T00:49:00.652Z,100164.50
2022-11-05T00:51:27.150Z,100171.31
2022-11-05T00:53:53.734Z,100168.78
2022-11-05T00:56:20.259Z,100179.22
2022-11-05T00:58:46.831Z,100163.13
2022-11-05T01:01:13.518Z,100160.38
2022-11-05T01:03:40.807Z,100183.34
2022-11-05T01:06:16.330Z,100189.31
2022-11-05T01:08:45.044Z,100184.03
2022-11-05T01:11:33.101Z,100168.00
2022-11-05T01:14:09.350Z,100166.28
2022-11-05T01:16:36.862Z,100200.91
2022-11-05T01:19:05.794Z,100198.88
2022-11-05T01:21:32.739Z,100203.19
2022-11-05T01:23:59.375Z,100207.72
2022-11-05T01:26:26.644Z,100207.00
2022-11-05T01:28:54.994Z,100195.25
2022-11-05T01:31:22.849Z,100209.69
2022-11-05T01:33:50.262Z,100200.97
2022-11-05T01:36:17.694Z,100192.94
2022-11-05T01:38:44.605Z,100207.44
2022-11-05T01:41:11.568Z,100211.97
2022-11-05T01:43:56.418Z,100220.88
2022-11-05T01:46:29.442Z,100226.41
2022-11-05T01:49:03.291Z,100224.81
2022-11-05T01:51:30.785Z,100218.28
2022-11-05T01:53:59.958Z,100195.06
2022-11-05T01:56:35.319Z,100198.75
2022-11-05T01:59:20.675Z,100227.25
2022-11-05T02:01:47.383Z,100223.88
2022-11-05T02:04:23.357Z,100234.38
2022-11-05T02:06:50.096Z,100199.78
2022-11-05T02:09:28.739Z,100233.41
2022-11-05T02:11:55.406Z,100212.06
2022-11-05T02:14:22.093Z,100234.44
2022-11-05T02:16:55.249Z,100237.03
2022-11-05T02:19:43.532Z,100212.19
2022-11-05T02:22:25.251Z,100239.41
2022-11-05T02:25:13.443Z,100237.50
2022-11-05T02:28:04.766Z,100243.56
2022-11-05T02:31:01.441Z,100213.59
2022-11-05T02:33:39.686Z,100239.34
2022-11-05T02:36:17.832Z,100216.97
2022-11-05T02:39:25.091Z,100221.31
2022-11-05T02:42:13.059Z,100243.00
2022-11-05T02:44:42.580Z,100248.22
2022-11-05T02:47:27.934Z,100245.63
2022-11-05T02:50:03.390Z,100259.16
2022-11-05T02:52:57.189Z,100254.22
2022-11-05T02:55:38.514Z,100239.88
2022-11-05T02:58:06.119Z,100259.63
2022-11-05T03:00:41.886Z,100268.47
2022-11-05T03:03:31.441Z,100265.16
2022-11-05T03:06:08.451Z,100272.09
2022-11-05T03:08:53.262Z,100279.09
2022-11-05T03:11:26.451Z,100275.53
2022-11-05T03:14:15.351Z,100277.31
2022-11-05T03:16:47.638Z,100278.00
2022-11-05T03:19:24.779Z,100270.84
2022-11-05T03:22:01.026Z,100253.59
2022-11-05T03:24:32.941Z,100288.16
2022-11-05T03:27:05.706Z,100281.94
2022-11-05T03:29:38.475Z,100287.22
2022-11-05T03:32:06.982Z,100262.16
2022-11-05T03:34:59.754Z,100292.31
2022-11-05T03:37:28.861Z,100256.38
2022-11-05T03:39:59.895Z,100303.06
2022-11-05T03:42:30.386Z,100301.47
2022-11-05T03:45:00.190Z,100303.03
2022-11-05T03:47:32.794Z,100307.44
2022-11-05T03:50:14.192Z,100311.81
2022-11-05T03:52:48.687Z,100312.59
2022-11-05T03:55:16.162Z,100320.25
2022-11-05T03:57:48.882Z,100319.53
2022-11-05T04:00:15.940Z,100316.28
2022-11-05T04:02:42.684Z,100302.69
2022-11-05T04:05:09.388Z,100320.88
2022-11-05T04:07:55.021Z,100292.81
2022-11-05T04:10:40.391Z,100317.97
2022-11-05T04:13:25.781Z,100324.28
2022-11-05T04:16:17.439Z,100320.06
2022-11-05T04:18:44.267Z,100331.56
2022-11-05T04:21:30.433Z,100331.69
2022-11-05T04:24:09.569Z,100317.13
2022-11-05T04:26:40.690Z,100329.84
2022-11-05T04:29:25.865Z,100329.16
2022-11-05T04:31:52.660Z,100338.50
2022-11-05T04:34:22.004Z,100340.94
2022-11-05T04:36:50.105Z,100341.91
2022-11-05T04:39:18.074Z,100343.84
2022-11-05T04:41:47.936Z,100354.56
2022-11-05T04:44:17.574Z,100352.44
2022-11-05T04:46:44.121Z,100354.50
2022-11-05T04:49:10.738Z,100369.53
2022-11-05T04:51:37.280Z,100357.06
2022-11-05T04:54:03.949Z,100361.25
2022-11-05T04:56:30.496Z,100367.16
2022-11-05T04:58:57.040Z,100361.22
2022-11-05T05:01:25.219Z,100366.53
2022-11-05T05:03:53.725Z,100363.22
2022-11-05T05:06:21.228Z,100372.31
2022-11-05T05:08:48.977Z,100369.91
2022-11-05T05:11:17.708Z,100376.09
2022-11-05T05:13:44.324Z,100381.38
2022-11-05T05:16:21.160Z,100350.94
2022-11-05T05:18:48.806Z,100374.69
2022-11-05T05:21:35.780Z,100374.47
2022-11-05T05:24:03.307Z,100374.63
2022-11-05T05:26:29.959Z,100374.84
2022-11-05T05:28:56.612Z,100382.00
2022-11-05T05:31:24.098Z,100380.13
2022-11-05T05:33:54.144Z,100388.75
2022-11-05T05:36:21.558Z,100385.25
2022-11-05T05:38:48.844Z,100393.16
2022-11-05T05:41:15.515Z,100365.84
2022-11-05T05:43:42.547Z,100399.63
2022-11-05T05:46:12.769Z,100406.78
2022-11-05T05:48:40.189Z,100413.91
2022-11-05T05:51:09.700Z,100414.88
2022-11-05T05:53:36.723Z,100419.88
2022-11-05T05:56:04.300Z,100425.81
2022-11-05T05:58:33.743Z,100413.38
2022-11-05T06:01:02.228Z,100425.41
2022-11-05T06:03:28.826Z,100424.44
2022-11-05T06:06:00.800Z,100421.91
2022-11-05T06:08:27.325Z,100435.22
2022-11-05T06:10:53.937Z,100406.13
2022-11-05T06:13:20.508Z,100440.50
2022-11-05T06:15:47.091Z,100409.38
2022-11-05T06:18:14.040Z,100444.41
2022-11-05T06:20:40.845Z,100454.78
2022-11-05T06:23:08.024Z,100420.19
2022-11-05T06:25:40.056Z,100433.19
2022-11-05T06:28:08.276Z,100463.47
2022-11-05T06:30:34.831Z,100468.84
2022-11-05T06:33:05.412Z,100468.91
2022-11-05T06:35:32.179Z,100465.56
2022-11-05T06:38:00.108Z,100471.72
2022-11-05T06:40:26.970Z,100474.50
2022-11-05T06:42:53.618Z,100473.66
2022-11-05T06:45:20.398Z,100481.31
2022-11-05T06:47:46.967Z,100450.38
2022-11-05T06:50:13.637Z,100481.56
2022-11-05T06:52:41.386Z,100494.16
2022-11-05T06:55:08.405Z,100499.59
2022-11-05T06:57:38.756Z,100497.22
2022-11-05T07:00:08.037Z,100506.25
2022-11-05T07:02:34.823Z,100489.38
2022-11-05T07:05:01.450Z,100518.19
2022-11-05T07:07:28.061Z,100521.78
2022-11-05T07:09:54.632Z,100527.41
2022-11-05T07:12:21.328Z,100525.72
2022-11-05T07:14:48.084Z,100531.97
2022-11-05T07:17:17.765Z,100539.78
2022-11-05T07:19:44.432Z,100525.09
2022-11-05T07:22:11.004Z,100533.56
2022-11-05T07:24:37.539Z,100542.00
2022-11-05T07:27:04.034Z,100548.78
2022-11-05T07:29:30.667Z,100537.47
2022-11-05T07:31:57.237Z,100539.84
2022-11-05T07:34:23.749Z,100555.72
2022-11-05T07:36:50.302Z,100563.88
2022-11-05T07:39:16.919Z,100569.84
2022-11-05T07:41:43.478Z,100568.38
2022-11-05T07:44:10.049Z,100570.34
2022-11-05T07:46:36.675Z,100575.72
2022-11-05T07:49:03.877Z,100564.69
2022-11-05T07:51:30.436Z,100573.84
2022-11-05T07:53:56.944Z,100584.16
2022-11-05T07:56:23.625Z,100585.22
2022-11-05T07:58:50.217Z,100565.78
2022-11-05T08:01:16.956Z,100592.63
2022-11-05T08:03:43.728Z,100588.47
2022-11-05T08:06:10.369Z,100601.53
2022-11-05T08:08:36.938Z,100607.03
2022-11-05T08:11:09.516Z,100609.03
2022-11-05T08:13:36.811Z,100595.97
2022-11-05T08:16:04.986Z,100605.25
2022-11-05T08:18:32.669Z,100604.44
2022-11-05T08:21:04.340Z,100608.03
2022-11-05T08:23:32.018Z,100610.00
2022-11-05T08:25:59.113Z,100604.84
2022-11-05T08:28:26.361Z,100608.00
2022-11-05T08:30:55.047Z,100610.47
2022-11-05T08:33:23.439Z,100618.47
2022-11-05T08:35:50.909Z,100620.09
2022-11-05T08:38:19.558Z,100610.66
2022-11-05T08:40:54.440Z,100629.19
2022-11-05T08:43:21.489Z,100623.00
2022-11-05T08:45:48.229Z,100628.59
2022-11-05T08:48:18.282Z,100611.34
2022-11-05T08:50:46.269Z,100638.53
2022-11-05T08:53:14.095Z,100633.13
2022-11-05T08:55:40.966Z,100646.25
2022-11-05T08:58:12.605Z,100628.72
2022-11-05T09:00:39.858Z,100643.66
2022-11-05T09:03:08.810Z,100637.09
2022-11-05T09:05:38.285Z,100615.94
2022-11-05T09:08:09.940Z,100634.41
2022-11-05T09:10:37.209Z,100616.41
2022-11-05T09:13:04.513Z,100638.59
2022-11-05T09:15:31.754Z,100622.16
2022-11-05T09:17:58.312Z,100636.72
2022-11-05T09:20:25.165Z,100637.66
2022-11-05T09:22:52.486Z,100647.84
2022-11-05T09:25:19.124Z,100640.72
2022-11-05T09:27:45.704Z,100653.03
2022-11-05T09:30:13.718Z,100656.88
2022-11-05T09:32:40.597Z,100650.50
2022-11-05T09:35:07.771Z,100648.38
2022-11-05T09:37:34.778Z,100625.09
2022-11-05T09:40:01.272Z,100658.50
2022-11-05T09:42:47.098Z,100664.00
2022-11-05T09:45:20.649Z,100671.16
2022-11-05T09:47:55.537Z,100674.78
2022-11-05T09:50:39.186Z,100673.00
2022-11-05T09:53:06.692Z,100682.19
2022-11-05T09:55:39.623Z,100688.75
2022-11-05T09:58:43.741Z,100680.75
2022-11-05T10:01:35.622Z,100696.28
2022-11-05T10:04:07.941Z,100682.97
2022-11-05T10:06:35.078Z,100691.78
2022-11-05T10:09:33.599Z,100695.78
2022-11-05T10:12:11.510Z,100663.03
2022-11-05T10:14:45.694Z,100693.97
2022-11-05T10:17:24.442Z,100665.56
2022-11-05T10:20:00.220Z,100698.28
2022-11-05T10:22:26.858Z,100701.00
2022-11-05T10:24:54.904Z,100705.94
2022-11-05T10:27:29.589Z,100693.56
2022-11-05T10:29:56.746Z,100673.97
2022-11-05T10:32:32.243Z,100698.13
2022-11-05T10:35:00.993Z,100696.28
2022-11-05T10:37:28.988Z,100697.88
2022-11-05T10:39:57.498Z,100698.66
2022-11-05T10:42:51.576Z,100682.03
2022-11-05T10:45:30.383Z,100706.03
2022-11-05T10:48:04.001Z,100675.50
2022-11-05T10:50:31.126Z,100700.91
2022-11-05T10:53:00.544Z,100701.03
2022-11-05T10:55:36.329Z,100678.13
2022-11-05T10:58:08.752Z,100708.47
2022-11-05T11:00:36.589Z,100701.41
2022-11-05T11:03:05.847Z,100689.38
2022-11-05T11:05:40.225Z,100711.06
2022-11-05T11:08:23.863Z,100703.88
2022-11-05T11:10:57.325Z,100705.78
2022-11-05T11:13:59.047Z,100698.28
2022-11-05T11:16:28.263Z,100702.88
2022-11-05T11:18:57.467Z,100699.75
2022-11-05T11:21:24.305Z,100701.16
2022-11-05T11:24:06.942Z,100697.81
2022-11-05T11:26:38.038Z,100705.28
2022-11-05T11:29:19.927Z,100698.19
2022-11-05T11:31:46.788Z,100695.50
2022-11-05T11:34:21.728Z,100677.22
2022-11-05T11:36:51.357Z,100699.63
2022-11-05T11:39:22.332Z,100688.72
2022-11-05T11:41:54.784Z,100706.56
2022-11-05T11:44:27.329Z,100697.81
2022-11-05T11:46:57.617Z,100690.78
2022-11-05T11:49:49.935Z,100693.66
2022-11-05T11:52:27.023Z,100687.09
2022-11-05T11:54:54.661Z,100670.50
2022-11-05T11:57:27.227Z,100693.59
2022-11-05T12:00:08.738Z,100692.94
2022-11-05T12:03:06.205Z,100690.41
2022-11-05T12:06:00.242Z,100683.03
2022-11-05T12:08:29.688Z,100686.03
2022-11-05T12:11:05.917Z,100689.56
2022-11-05T12:13:56.606Z,100685.25
2022-11-05T12:16:42.091Z,100681.53
2022-11-05T12:19:39.913Z,100683.19
2022-11-05T12:22:25.211Z,100685.25
2022-11-05T12:25:21.573Z,100678.97
2022-11-05T12:28:17.536Z,100674.75
2022-11-05T12:31:05.257Z,100649.44
2022-11-05T12:34:07.345Z,100672.75
2022-11-05T12:36:59.518Z,100666.44
2022-11-05T12:39:58.448Z,100664.91
2022-11-05T12:42:42.767Z,100661.72
2022-11-05T12:45:27.360Z,100670.38
2022-11-05T12:48:28.292Z,100675.38
2022-11-05T12:51:28.859Z,100633.28
2022-11-05T12:54:09.713Z,100676.19
2022-11-05T12:56:47.586Z,100671.47
2022-11-05T12:59:27.148Z,100687.66
2022-11-05T13:02:14.265Z,100683.53
2022-11-05T13:04:49.469Z,100684.09
2022-11-05T13:07:21.615Z,100696.75
2022-11-05T13:09:54.916Z,100696.03
2022-11-05T13:12:25.512Z,100690.19
2022-11-05T13:15:01.001Z,100701.63
2022-11-05T13:18:05.510Z,100700.94
2022-11-05T13:20:37.528Z,100686.69
2022-11-05T13:23:16.294Z,100682.38
2022-11-05T13:25:50.816Z,100696.19
2022-11-05T13:28:17.247Z,100694.59
2022-11-05T13:30:51.691Z,100696.56
2022-11-05T13:33:23.048Z,100680.78
2022-11-05T13:36:17.039Z,100699.63
2022-11-05T13:39:01.012Z,100698.56
2022-11-05T13:41:30.426Z,100706.94
2022-11-05T13:44:19.373Z,100700.03
2022-11-05T13:47:11.941Z,100696.19
2022-11-05T13:49:49.363Z,100691.78
2022-11-05T13:52:24.270Z,100698.84
2022-11-05T13:55:21.755Z,100699.72
2022-11-05T13:58:10.154Z,100693.44
2022-11-05T14:00:45.247Z,100694.38
2022-11-05T14:03:21.259Z,100655.75
2022-11-05T14:06:05.628Z,100687.69
2022-11-05T14:08:40.269Z,100702.53
2022-11-05T14:11:18.941Z,100712.13
2022-11-05T14:13:46.797Z,100690.13
2022-11-05T14:16:16.382Z,100691.25
2022-11-05T14:18:52.231Z,100691.69
2022-11-05T14:21:30.464Z,100692.72
2022-11-05T14:24:19.519Z,100693.03
2022-11-05T14:27:05.979Z,100698.19
2022-11-05T14:29:39.585Z,100702.38
2022-11-05T14:32:18.711Z,100701.19
2022-11-05T14:34:45.324Z,100694.66
2022-11-05T14:37:12.101Z,100662.53
2022-11-05T14:39:40.161Z,100691.56
2022-11-05T14:42:26.894Z,100690.59
2022-11-05T14:45:00.921Z,100638.97
2022-11-05T14:47:39.096Z,100693.50
2022-11-05T14:50:18.173Z,100696.88
2022-11-05T14:52:54.024Z,100697.66
2022-11-05T14:55:34.270Z,100698.59
2022-11-05T14:58:04.678Z,100687.69
2022-11-05T15:00:32.461Z,100702.97
2022-11-05T15:03:01.747Z,100707.22
2022-11-05T15:05:30.921Z,100705.66
2022-11-05T15:07:59.190Z,100713.00
2022-11-05T15:10:32.187Z,100680.31
2022-11-05T15:13:06.357Z,100711.50
2022-11-05T15:15:43.530Z,100716.13
2022-11-05T15:18:17.085Z,100707.78
2022-11-05T15:20:46.998Z,100704.56
2022-11-05T15:23:18.126Z,100697.66
2022-11-05T15:26:09.980Z,100701.53
2022-11-05T15:28:43.784Z,100672.38
2022-11-05T15:31:13.260Z,100701.00
2022-11-05T15:33:46.797Z,100712.31
2022-11-05T15:36:27.706Z,100713.25
2022-11-05T15:39:22.864Z,100701.97
2022-11-05T15:41:41.130Z,100712.53
2022-11-05T15:44:24.103Z,100716.78
2022-11-05T15:47:16.747Z,100677.16
2022-11-05T15:49:49.989Z,100686.66
2022-11-05T15:52:18.908Z,100713.34
2022-11-05T15:54:45.781Z,100715.88
2022-11-05T15:57:21.006Z,100703.34
2022-11-05T15:59:48.058Z,100717.81
2022-11-05T16:02:26.536Z,100718.53
2022-11-05T16:04:53.317Z,100690.22
2022-11-05T16:07:20.116Z,100720.34
2022-11-05T16:09:56.972Z,100707.94
2022-11-05T16:12:26.089Z,100703.59
2022-11-05T16:14:57.141Z,100713.13
2022-11-05T16:17:25.978Z,100710.38
2022-11-05T16:19:52.659Z,100708.59
2022-11-05T16:22:19.696Z,100697.63
2022-11-05T16:24:46.614Z,100714.97
2022-11-05T16:27:19.939Z,100714.31
2022-11-05T16:29:57.314Z,100724.88
2022-11-05T16:32:30.607Z,100722.25
2022-11-05T16:35:00.860Z,100722.53
2022-11-05T16:37:29.751Z,100726.53
2022-11-05T16:39:56.350Z,100721.47
2022-11-05T16:42:22.874Z,100694.03
2022-11-05T16:44:50.155Z,100723.41
2022-11-05T16:47:17.548Z,100741.19
2022-11-05T16:49:44.218Z,100712.81
2022-11-05T16:52:12.800Z,100749.50
2022-11-05T16:54:39.407Z,100749.69
2022-11-05T16:57:15.810Z,100761.97
2022-11-05T16:59:42.751Z,100768.19
2022-11-05T17:02:11.228Z,100765.78
2022-11-05T17:04:37.774Z,100779.84
2022-11-05T17:07:04.335Z,100784.38
2022-11-05T17:09:31.930Z,100796.53
2022-11-05T17:12:00.774Z,100793.94
2022-11-05T17:14:27.366Z,100790.66
2022-11-05T17:16:54.039Z,100764.13
2022-11-05T17:19:20.625Z,100767.66
2022-11-05T17:21:47.198Z,100787.25
2022-11-05T17:24:13.794Z,100782.06
2022-11-05T17:26:40.323Z,100802.06
2022-11-05T17:29:06.859Z,100798.63
2022-11-05T17:31:33.461Z,100800.72
2022-11-05T17:34:00.403Z,100801.59
2022-11-05T17:36:27.079Z,100787.56
2022-11-05T17:38:54.052Z,100804.28
2022-11-05T17:41:22.398Z,100801.84
2022-11-05T17:43:52.991Z,100792.47
2022-11-05T17:46:20.425Z,100803.09
2022-11-05T17:48:47.165Z,100796.06
2022-11-05T17:51:15.623Z,100811.75
2022-11-05T17:53:42.958Z,100812.78
2022-11-05T17:56:11.526Z,100813.03
2022-11-05T17:58:38.548Z,100809.53
2022-11-05T18:01:06.928Z,100782.44
2022-11-05T18:03:34.073Z,100806.53
2022-11-05T18:06:02.287Z,100816.22
2022-11-05T18:08:28.809Z,100818.22
2022-11-05T18:10:55.505Z,100796.72
2022-11-05T18:13:22.134Z,100807.59
2022-11-05T18:15:52.553Z,100824.13
2022-11-05T18:18:19.739Z,100820.66
2022-11-05T18:23:30.300Z,100799.91
2022-11-05T18:25:57.004Z,100841.69
2022-11-05T18:28:23.554Z,100843.44
2022-11-05T18:30:50.984Z,100839.66
2022-11-05T18:33:17.614Z,100822.31
2022-11-05T18:35:44.794Z,100848.22
2022-11-05T18:38:12.157Z,100842.88
2022-11-05T18:40:38.716Z,100853.34
2022-11-05T18:43:05.653Z,100848.03
2022-11-05T18:45:33.423Z,100841.97
2022-11-05T18:48:01.615Z,100846.25
2022-11-05T18:50:28.439Z,100840.09
2022-11-05T18:52:55.211Z,100849.84
2022-11-05T18:55:22.098Z,100850.78
2022-11-05T18:57:48.651Z,100846.59
2022-11-05T19:00:16.684Z,100847.50
2022-11-05T19:02:43.601Z,100827.63
2022-11-05T19:07:57.247Z,100833.00
2022-11-05T19:10:23.859Z,100854.91
2022-11-05T19:12:50.578Z,100857.75
2022-11-05T19:15:17.350Z,100851.03
2022-11-05T19:17:43.882Z,100842.25
2022-11-05T19:20:11.128Z,100858.81
2022-11-05T19:22:37.739Z,100854.28
2022-11-05T19:25:05.332Z,100848.28
2022-11-05T19:27:31.934Z,100838.63
2022-11-05T19:29:58.481Z,100824.03
2022-11-05T19:32:25.112Z,100817.03
2022-11-05T19:34:51.662Z,100843.75
2022-11-05T19:37:19.184Z,100842.00
2022-11-05T19:39:45.757Z,100844.69
2022-11-05T19:42:12.678Z,100842.13
2022-11-05T19:44:39.245Z,100849.94
2022-11-05T19:47:05.785Z,100846.28
2022-11-05T19:49:32.487Z,100814.09
2022-11-05T19:51:59.038Z,100833.09
2022-11-05T19:54:25.955Z,100833.88
2022-11-05T19:56:52.901Z,100838.34
2022-11-05T19:59:19.474Z,100841.06
2022-11-05T20:01:46.131Z,100841.06
2022-11-05T20:04:13.009Z,100845.56
2022-11-05T20:06:40.792Z,100832.56
2022-11-05T20:09:27.422Z,100845.81
2022-11-05T20:11:56.124Z,100828.25
2022-11-05T20:14:23.933Z,100837.81
2022-11-05T20:16:50.611Z,100839.69
2022-11-05T20:19:19.343Z,100846.75
2022-11-05T20:21:46.372Z,100837.41
2022-11-05T20:24:22.415Z,100848.84
2022-11-05T20:26:51.097Z,100830.00
2022-11-05T20:29:17.786Z,100828.41
2022-11-05T20:31:44.383Z,100844.84
2022-11-05T20:34:10.961Z,100852.72
2022-11-05T20:36:38.818Z,100848.38
2022-11-05T20:39:05.841Z,100851.03
2022-11-05T20:41:33.263Z,100846.22
2022-11-05T20:43:59.858Z,100827.25
2022-11-05T20:46:26.695Z,100856.75
2022-11-05T20:48:53.960Z,100857.72
2022-11-05T20:51:24.362Z,100850.78
2022-11-05T20:53:55.478Z,100833.66
2022-11-05T20:56:25.847Z,100843.19
2022-11-05T20:58:53.053Z,100854.66
2022-11-05T21:01:20.411Z,100850.38
2022-11-05T21:03:48.251Z,100826.28
2022-11-05T21:06:15.773Z,100835.00
2022-11-05T21:08:43.367Z,100849.66
2022-11-05T21:11:10.729Z,100853.75
2022-11-05T21:13:37.544Z,100827.59
2022-11-05T21:16:06.645Z,100849.31
2022-11-05T21:18:34.836Z,100857.03
2022-11-05T21:21:06.164Z,100829.22
2022-11-05T21:23:32.699Z,100842.06
2022-11-05T21:26:03.860Z,100841.06
2022-11-05T21:28:30.402Z,100848.81
2022-11-05T21:31:01.621Z,100846.94
2022-11-05T21:33:28.243Z,100839.94
2022-11-05T21:35:58.360Z,100847.00
2022-11-05T21:38:26.475Z,100837.44
2022-11-05T21:40:53.047Z,100833.72
2022-11-05T21:43:19.599Z,100834.81
2022-11-05T21:45:46.206Z,100835.88
2022-11-05T21:48:15.286Z,100839.34
2022-11-05T21:51:01.190Z,100846.47
2022-11-05T21:53:46.857Z,100834.06
2022-11-05T21:56:43.609Z,100838.22
2022-11-05T21:59:32.436Z,100835.88
2022-11-05T22:02:02.716Z,100843.22
2022-11-05T22:04:35.717Z,100848.69
2022-11-05T22:07:03.690Z,100820.13
2022-11-05T22:09:30.237Z,100847.03
2022-11-05T22:11:57.095Z,100840.75
2022-11-05T22:14:23.918Z,100822.44
2022-11-05T22:16:50.471Z,100835.16
2022-11-05T22:19:17.463Z,100829.03
2022-11-05T22:21:44.096Z,100851.41
2022-11-05T22:24:10.686Z,100848.72
2022-11-05T22:26:38.214Z,100860.31
2022-11-05T22:29:05.877Z,100845.09
2022-11-05T22:31:36.166Z,100865.13
2022-11-05T22:34:06.604Z,100870.47
2022-11-05T22:36:34.448Z,100861.78
2022-11-05T22:39:01.047Z,100860.03
2022-11-05T22:41:28.308Z,100847.81
2022-11-05T22:43:55.820Z,100844.16
2022-11-05T22:46:25.262Z,100827.72
2022-11-05T22:48:52.340Z,100826.06
2022-11-05T22:51:22.262Z,100826.16
2022-11-05T22:53:49.215Z,100825.53
2022-11-05T22:56:18.757Z,100845.47
2022-11-05T22:58:45.459Z,100844.56
2022-11-05T23:01:12.745Z,100852.41
2022-11-05T23:03:41.301Z,100850.59
2022-11-05T23:06:32.170Z,100849.81
2022-11-05T23:09:18.625Z,100852.44
2022-11-05T23:11:49.032Z,100836.03
2022-11-05T23:14:15.645Z,100848.88
2022-11-05T23:17:01.620Z,100844.56
2022-11-05T23:19:47.365Z,100849.09
2022-11-05T23:22:35.440Z,100818.75
2022-11-05T23:25:03.160Z,100838.66
2022-11-05T23:27:31.668Z,100836.94
2022-11-05T23:30:03.161Z,100807.47
2022-11-05T23:32:31.424Z,100822.06
2022-11-05T23:34:59.043Z,100816.69
2022-11-05T23:37:47.685Z,100824.31
2022-11-05T23:40:24.208Z,100830.53
2022-11-05T23:43:09.682Z,100827.97
2022-11-05T23:45:39.428Z,100825.34
2022-11-05T23:48:19.483Z,100827.91
2022-11-05T23:50:51.048Z,100819.16
2022-11-05T23:53:18.327Z,100827.06
2022-11-05T23:55:45.022Z,100823.59
2022-11-05T23:58:14.128Z,100795.88
